createdAt,value
2022-09-14T00:01:33.122Z,69.70
2022-09-14T00:04:23.261Z,70.00
2022-09-14T00:06:52.766Z,70.10
2022-09-14T00:09:23.114Z,70.10
2022-09-14T00:11:51.386Z,71.10
2022-09-14T00:14:19.642Z,70.50
2022-09-14T00:16:47.090Z,70.40
2022-09-14T00:19:24.311Z,70.50
2022-09-14T00:21:59.036Z,70.70
2022-09-14T00:24:28.313Z,71.00
2022-09-14T00:26:55.764Z,71.00
2022-09-14T00:29:24.178Z,71.10
2022-09-14T00:31:52.101Z,71.20
2022-09-14T00:34:19.490Z,70.90
2022-09-14T00:36:49.698Z,70.80
2022-09-14T00:39:19.176Z,71.50
2022-09-14T00:41:48.113Z,71.20
2022-09-14T00:44:15.251Z,71.20
2022-09-14T00:46:48.510Z,71.30
2022-09-14T00:49:39.036Z,71.40
2022-09-14T00:52:09.202Z,71.10
2022-09-14T00:54:55.387Z,71.00
2022-09-14T00:57:23.465Z,71.50
2022-09-14T00:59:52.434Z,72.30
2022-09-14T01:02:22.530Z,71.30
2022-09-14T01:04:51.039Z,71.60
2022-09-14T01:07:24.011Z,71.70
2022-09-14T01:10:04.139Z,71.10
2022-09-14T01:12:57.381Z,71.90
2022-09-14T01:15:54.006Z,71.50
2022-09-14T01:18:30.325Z,71.60
2022-09-14T01:21:03.928Z,71.70
2022-09-14T01:23:46.971Z,71.70
2022-09-14T01:26:34.985Z,72.50
2022-09-14T01:29:06.378Z,71.80
2022-09-14T01:31:54.500Z,72.00
2022-09-14T01:34:34.262Z,72.90
2022-09-14T01:37:13.133Z,72.70
2022-09-14T01:39:52.047Z,72.60
2022-09-14T01:42:22.655Z,72.70
2022-09-14T01:44:55.437Z,72.80
2022-09-14T01:47:31.250Z,72.90
2022-09-14T01:50:12.457Z,73.20
2022-09-14T01:52:50.144Z,73.50
2022-09-14T01:55:25.975Z,73.20
2022-09-14T01:58:20.978Z,73.20
2022-09-14T02:00:50.051Z,73.20
2022-09-14T02:03:26.088Z,73.10
2022-09-14T02:05:57.949Z,73.80
2022-09-14T02:08:28.048Z,74.50
2022-09-14T02:10:57.412Z,74.80
2022-09-14T02:13:25.338Z,75.00
2022-09-14T02:15:52.762Z,75.50
2022-09-14T02:18:20.610Z,75.90
2022-09-14T02:20:53.972Z,75.60
2022-09-14T02:23:22.094Z,76.20
2022-09-14T02:25:49.468Z,76.60
2022-09-14T02:28:16.614Z,76.90
2022-09-14T02:31:04.547Z,76.30
2022-09-14T02:33:45.969Z,76.60
2022-09-14T02:36:20.155Z,77.20
2022-09-14T02:38:56.688Z,77.20
2022-09-14T02:41:31.012Z,77.20
2022-09-14T02:44:22.951Z,77.20
2022-09-14T02:47:03.548Z,77.20
2022-09-14T02:49:50.810Z,77.30
2022-09-14T02:52:41.681Z,77.30
2022-09-14T02:55:19.812Z,77.20
2022-09-14T02:58:14.130Z,77.10
2022-09-14T03:00:47.034Z,77.20
2022-09-14T03:03:16.918Z,76.90
2022-09-14T03:05:44.395Z,76.80
2022-09-14T03:08:12.119Z,76.80
2022-09-14T03:10:42.491Z,76.90
2022-09-14T03:13:09.832Z,76.80
2022-09-14T03:15:37.164Z,76.70
2022-09-14T03:18:06.402Z,76.70
2022-09-14T03:20:34.729Z,76.70
2022-09-14T03:23:02.703Z,76.60
2022-09-14T03:25:30.271Z,76.60
2022-09-14T03:27:59.993Z,76.60
2022-09-14T03:30:29.261Z,76.80
2022-09-14T03:32:58.959Z,77.30
2022-09-14T03:35:26.202Z,77.60
2022-09-14T03:37:53.433Z,78.10
2022-09-14T03:40:22.016Z,78.30
2022-09-14T03:42:51.452Z,78.90
2022-09-14T03:45:22.628Z,79.20
2022-09-14T03:47:50.766Z,78.90
2022-09-14T03:50:22.721Z,79.40
2022-09-14T03:52:49.837Z,79.50
2022-09-14T03:55:17.168Z,79.30
2022-09-14T03:57:44.865Z,79.50
2022-09-14T04:00:12.253Z,80.10
2022-09-14T04:02:40.094Z,80.10
2022-09-14T04:05:07.773Z,79.80
2022-09-14T04:07:35.808Z,80.00
2022-09-14T04:10:05.777Z,80.50
2022-09-14T04:12:37.687Z,80.50
2022-09-14T04:15:06.656Z,80.60
2022-09-14T04:17:34.626Z,80.80
2022-09-14T04:20:02.074Z,80.90
2022-09-14T04:22:29.194Z,81.30
2022-09-14T04:24:56.283Z,81.10
2022-09-14T04:27:23.536Z,81.40
2022-09-14T04:29:51.345Z,81.20
2022-09-14T04:32:18.497Z,81.80
2022-09-14T04:34:45.621Z,81.60
2022-09-14T04:37:12.761Z,81.50
2022-09-14T04:39:41.020Z,81.50
2022-09-14T04:42:08.417Z,81.60
2022-09-14T04:44:35.481Z,81.50
2022-09-14T04:47:02.755Z,82.00
2022-09-14T04:49:30.099Z,81.40
2022-09-14T04:51:57.255Z,81.90
2022-09-14T04:54:25.308Z,81.00
2022-09-14T04:56:52.918Z,80.90
2022-09-14T04:59:20.043Z,80.70
2022-09-14T05:01:48.472Z,80.50
2022-09-14T05:04:15.918Z,80.40
2022-09-14T05:06:44.545Z,80.20
2022-09-14T05:09:14.779Z,80.00
2022-09-14T05:11:42.686Z,80.00
2022-09-14T05:14:12.258Z,79.70
2022-09-14T05:16:42.188Z,79.60
2022-09-14T05:19:13.331Z,79.50
2022-09-14T05:21:40.437Z,79.50
2022-09-14T05:24:12.643Z,80.10
2022-09-14T05:26:39.821Z,80.40
2022-09-14T05:29:07.158Z,80.80
2022-09-14T05:31:36.361Z,80.90
2022-09-14T05:34:03.540Z,80.70
2022-09-14T05:36:30.743Z,80.40
2022-09-14T05:38:57.999Z,80.60
2022-09-14T05:41:25.092Z,80.60
2022-09-14T05:43:52.194Z,80.90
2022-09-14T05:46:20.660Z,80.80
2022-09-14T05:48:51.776Z,80.90
2022-09-14T05:51:26.655Z,81.30
2022-09-14T05:53:57.024Z,81.50
2022-09-14T05:56:26.331Z,81.50
2022-09-14T05:58:54.061Z,81.30
2022-09-14T06:01:26.347Z,81.60
2022-09-14T06:03:55.102Z,81.50
2022-09-14T06:06:23.098Z,81.40
2022-09-14T06:08:52.782Z,81.50
2022-09-14T06:11:23.285Z,81.40
2022-09-14T06:13:53.436Z,81.40
2022-09-14T06:16:21.921Z,81.20
2022-09-14T06:18:52.527Z,81.40
2022-09-14T06:21:20.771Z,81.30
2022-09-14T06:23:49.517Z,81.40
2022-09-14T06:26:16.703Z,81.30
2022-09-14T06:28:44.277Z,81.20
2022-09-14T06:31:13.812Z,81.20
2022-09-14T06:33:45.294Z,81.20
2022-09-14T06:36:16.365Z,80.30
2022-09-14T06:38:44.485Z,80.20
2022-09-14T06:41:14.459Z,80.30
2022-09-14T06:43:42.760Z,80.50
2022-09-14T06:46:16.310Z,80.60
2022-09-14T06:49:01.967Z,80.50
2022-09-14T06:51:40.610Z,80.30
2022-09-14T06:54:10.494Z,79.80
2022-09-14T06:56:39.786Z,79.70
2022-09-14T06:59:09.015Z,79.30
2022-09-14T07:01:36.898Z,79.50
2022-09-14T07:04:05.365Z,79.20
2022-09-14T07:06:42.936Z,79.00
2022-09-14T07:09:10.613Z,78.60
2022-09-14T07:11:38.549Z,78.30
2022-09-14T07:14:06.667Z,77.80
2022-09-14T07:16:35.933Z,77.60
2022-09-14T07:19:05.789Z,77.90
2022-09-14T07:21:34.167Z,77.20
2022-09-14T07:24:02.090Z,77.80
2022-09-14T07:26:31.644Z,77.70
2022-09-14T07:29:05.448Z,76.70
2022-09-14T07:31:37.065Z,76.60
2022-09-14T07:34:05.559Z,76.10
2022-09-14T07:36:38.778Z,76.00
2022-09-14T07:39:10.703Z,76.00
2022-09-14T07:41:42.501Z,76.00
2022-09-14T07:44:13.459Z,75.50
2022-09-14T07:46:45.448Z,75.90
2022-09-14T07:49:14.407Z,75.50
2022-09-14T07:51:44.421Z,75.40
2022-09-14T07:54:16.853Z,74.90
2022-09-14T07:56:46.150Z,75.20
2022-09-14T07:59:36.795Z,76.20
2022-09-14T08:02:08.960Z,75.80
2022-09-14T08:04:43.807Z,76.00
2022-09-14T08:07:14.387Z,76.60
2022-09-14T08:09:44.712Z,76.40
2022-09-14T08:12:11.943Z,76.30
2022-09-14T08:14:39.130Z,76.30
2022-09-14T08:17:06.251Z,76.40
2022-09-14T08:19:33.415Z,75.50
2022-09-14T08:22:00.794Z,73.90
2022-09-14T08:24:27.906Z,73.70
2022-09-14T08:26:55.430Z,73.90
2022-09-14T08:29:22.637Z,72.70
2022-09-14T08:31:51.732Z,72.30
2022-09-14T08:34:22.800Z,71.20
2022-09-14T08:36:50.405Z,70.50
2022-09-14T08:39:18.193Z,70.50
2022-09-14T08:41:55.770Z,70.70
2022-09-14T08:44:30.527Z,70.40
2022-09-14T08:47:04.291Z,70.00
2022-09-14T08:49:48.553Z,68.80
2022-09-14T08:52:37.287Z,68.40
2022-09-14T08:55:36.431Z,68.90
2022-09-14T08:58:20.657Z,69.20
2022-09-14T09:00:53.609Z,69.00
2022-09-14T09:03:39.028Z,69.40
2022-09-14T09:06:28.291Z,68.60
2022-09-14T09:08:59.234Z,68.30
2022-09-14T09:11:32.126Z,68.10
2022-09-14T09:13:59.660Z,67.70
2022-09-14T09:16:27.361Z,67.60
2022-09-14T09:19:02.621Z,67.60
2022-09-14T09:21:35.757Z,66.70
2022-09-14T09:24:12.885Z,66.70
2022-09-14T09:26:40.410Z,67.20
2022-09-14T09:29:10.163Z,67.30
2022-09-14T09:31:50.450Z,67.30
2022-09-14T09:34:26.886Z,67.40
2022-09-14T09:36:56.589Z,65.30
2022-09-14T09:39:24.511Z,65.70
2022-09-14T09:42:12.307Z,65.60
2022-09-14T09:45:03.149Z,65.00
2022-09-14T09:47:37.172Z,64.60
2022-09-14T09:50:21.095Z,63.80
2022-09-14T09:53:02.132Z,64.30
2022-09-14T09:55:39.974Z,62.80
2022-09-14T09:58:28.306Z,62.60
2022-09-14T10:01:07.714Z,62.40
2022-09-14T10:03:39.846Z,62.40
2022-09-14T10:06:18.015Z,62.30
2022-09-14T10:08:47.568Z,62.10
2022-09-14T10:11:37.978Z,62.40
2022-09-14T10:14:18.893Z,61.80
2022-09-14T10:16:46.245Z,61.60
2022-09-14T10:19:22.311Z,61.40
2022-09-14T10:22:06.048Z,61.80
2022-09-14T10:24:36.071Z,61.80
2022-09-14T10:27:38.125Z,62.20
2022-09-14T10:30:20.983Z,62.00
2022-09-14T10:32:56.431Z,61.80
2022-09-14T10:35:30.505Z,61.30
2022-09-14T10:38:05.173Z,61.80
2022-09-14T10:40:38.312Z,62.00
2022-09-14T10:43:17.972Z,61.80
2022-09-14T10:45:53.826Z,61.90
2022-09-14T10:48:32.446Z,62.00
2022-09-14T10:51:06.145Z,62.10
2022-09-14T10:54:01.436Z,62.40
2022-09-14T10:57:20.117Z,62.80
2022-09-14T11:00:01.765Z,62.80
2022-09-14T11:02:50.740Z,63.10
2022-09-14T11:05:23.142Z,63.70
2022-09-14T11:08:02.127Z,63.80
2022-09-14T11:10:54.209Z,64.00
2022-09-14T11:13:33.494Z,64.20
2022-09-14T11:16:24.368Z,65.20
2022-09-14T11:19:09.769Z,64.80
2022-09-14T11:21:40.066Z,64.90
2022-09-14T11:24:35.858Z,65.60
2022-09-14T11:27:29.172Z,65.40
2022-09-14T11:30:03.061Z,65.50
2022-09-14T11:32:36.026Z,65.70
2022-09-14T11:35:26.993Z,65.70
2022-09-14T11:38:12.912Z,65.60
2022-09-14T11:40:47.808Z,65.80
2022-09-14T11:43:43.213Z,65.60
2022-09-14T11:46:15.001Z,65.60
2022-09-14T11:48:57.655Z,65.30
2022-09-14T11:51:32.632Z,65.50
2022-09-14T11:53:59.989Z,65.60
2022-09-14T11:56:32.577Z,65.60
2022-09-14T11:59:04.300Z,65.90
2022-09-14T12:01:37.072Z,66.20
2022-09-14T12:04:13.503Z,66.50
2022-09-14T12:06:40.961Z,66.70
2022-09-14T12:09:17.437Z,66.70
2022-09-14T12:11:46.543Z,66.90
2022-09-14T12:14:29.770Z,67.30
2022-09-14T12:17:38.896Z,67.80
2022-09-14T12:20:34.223Z,67.90
2022-09-14T12:23:18.594Z,68.30
2022-09-14T12:26:10.928Z,69.10
2022-09-14T12:28:38.222Z,68.70
2022-09-14T12:31:09.926Z,68.70
2022-09-14T12:33:37.927Z,68.60
2022-09-14T12:36:32.149Z,68.70
2022-09-14T12:39:06.571Z,68.60
2022-09-14T12:41:36.667Z,68.60
2022-09-14T12:44:25.222Z,68.60
2022-09-14T12:46:52.557Z,68.70
2022-09-14T12:49:29.418Z,68.80
2022-09-14T12:52:00.938Z,68.80
2022-09-14T12:54:51.079Z,69.00
2022-09-14T12:57:34.514Z,69.10
2022-09-14T13:00:13.710Z,69.00
2022-09-14T13:03:00.701Z,69.70
2022-09-14T13:05:32.221Z,68.90
2022-09-14T13:08:00.084Z,68.90
2022-09-14T13:10:37.156Z,68.90
2022-09-14T13:13:18.966Z,69.00
2022-09-14T13:15:53.815Z,68.80
2022-09-14T13:18:21.152Z,68.80
2022-09-14T13:20:54.927Z,68.80
2022-09-14T13:23:38.738Z,68.90
2022-09-14T13:26:11.448Z,68.80
2022-09-14T13:28:44.980Z,68.90
2022-09-14T13:31:17.056Z,68.90
2022-09-14T13:33:52.085Z,68.90
2022-09-14T13:36:29.522Z,69.00
2022-09-14T13:39:01.336Z,68.80
2022-09-14T13:41:33.657Z,69.10
2022-09-14T13:44:01.115Z,68.80
2022-09-14T13:46:28.698Z,68.80
2022-09-14T13:48:56.240Z,68.70
2022-09-14T13:51:28.460Z,68.70
2022-09-14T13:54:15.662Z,68.70
2022-09-14T13:56:42.774Z,68.70
2022-09-14T13:59:12.646Z,68.90
2022-09-14T14:01:43.359Z,68.80
2022-09-14T14:04:27.572Z,68.90
2022-09-14T14:07:12.973Z,68.90
2022-09-14T14:09:51.331Z,69.00
2022-09-14T14:12:39.494Z,68.90
2022-09-14T14:15:27.994Z,69.00
2022-09-14T14:17:55.218Z,68.90
2022-09-14T14:20:35.885Z,68.90
2022-09-14T14:23:06.116Z,68.70
2022-09-14T14:25:43.371Z,68.60
2022-09-14T14:28:22.143Z,68.70
2022-09-14T14:30:49.713Z,68.40
2022-09-14T14:33:22.659Z,68.40
2022-09-14T14:35:57.115Z,68.00
2022-09-14T14:38:25.094Z,68.20
2022-09-14T14:40:55.266Z,68.40
2022-09-14T14:43:25.396Z,68.40
2022-09-14T14:45:58.773Z,68.40
2022-09-14T14:48:26.797Z,68.40
2022-09-14T14:50:55.760Z,68.40
2022-09-14T14:53:24.370Z,68.30
2022-09-14T14:55:54.913Z,68.30
2022-09-14T14:58:24.669Z,68.50
2022-09-14T15:00:53.067Z,68.40
2022-09-14T15:03:20.313Z,68.30
2022-09-14T15:05:48.685Z,68.30
2022-09-14T15:08:19.849Z,68.30
2022-09-14T15:10:47.264Z,68.10
2022-09-14T15:13:16.855Z,68.20
2022-09-14T15:15:45.281Z,68.20
2022-09-14T15:18:12.448Z,68.20
2022-09-14T15:20:39.729Z,68.30
2022-09-14T15:23:06.981Z,68.20
2022-09-14T15:25:34.230Z,68.30
2022-09-14T15:28:01.414Z,68.30
2022-09-14T15:30:28.558Z,68.30
2022-09-14T15:32:55.631Z,68.30
2022-09-14T15:35:23.869Z,68.30
2022-09-14T15:37:52.454Z,68.30
2022-09-14T15:40:20.566Z,68.20
2022-09-14T15:42:47.749Z,68.30
2022-09-14T15:45:15.004Z,68.30
2022-09-14T15:47:43.066Z,68.30
2022-09-14T15:50:11.707Z,68.30
2022-09-14T15:52:41.401Z,68.30
2022-09-14T15:55:10.533Z,68.50
2022-09-14T15:57:39.023Z,68.70
2022-09-14T16:00:09.676Z,68.70
2022-09-14T16:02:37.059Z,68.80
2022-09-14T16:05:04.561Z,69.00
2022-09-14T16:07:31.784Z,69.20
2022-09-14T16:09:59.309Z,69.50
2022-09-14T16:12:26.800Z,70.10
2022-09-14T16:14:53.900Z,69.80
2022-09-14T16:17:22.089Z,69.90
2022-09-14T16:19:50.602Z,70.00
2022-09-14T16:22:19.258Z,70.00
2022-09-14T16:24:46.431Z,70.30
2022-09-14T16:27:13.589Z,70.90
2022-09-14T16:29:40.872Z,70.40
2022-09-14T16:32:08.082Z,70.50
2022-09-14T16:34:38.121Z,70.70
2022-09-14T16:37:05.274Z,70.70
2022-09-14T16:39:35.191Z,70.70
2022-09-14T16:42:08.052Z,71.10
2022-09-14T16:44:35.210Z,71.20
2022-09-14T16:47:02.710Z,71.30
2022-09-14T16:49:30.259Z,71.60
2022-09-14T16:52:00.658Z,71.70
2022-09-14T16:54:29.932Z,72.00
2022-09-14T16:57:00.367Z,73.20
2022-09-14T16:59:27.988Z,72.30
2022-09-14T17:01:55.713Z,72.70
2022-09-14T17:04:24.487Z,72.50
2022-09-14T17:06:52.985Z,72.90
2022-09-14T17:09:32.769Z,73.20
2022-09-14T17:12:02.964Z,72.90
2022-09-14T17:14:32.524Z,73.80
2022-09-14T17:17:00.483Z,73.80
2022-09-14T17:19:28.459Z,74.60
2022-09-14T17:21:55.688Z,75.10
2022-09-14T17:24:23.112Z,74.90
2022-09-14T17:26:50.282Z,75.00
2022-09-14T17:29:18.783Z,75.60
2022-09-14T17:31:45.999Z,76.00
2022-09-14T17:34:15.903Z,76.40
2022-09-14T17:36:43.668Z,76.90
2022-09-14T17:39:13.270Z,76.70
2022-09-14T17:41:46.791Z,79.30
2022-09-14T17:44:14.658Z,77.90
2022-09-14T17:46:51.662Z,79.30
2022-09-14T17:49:21.675Z,80.30
2022-09-14T17:51:49.494Z,78.90
2022-09-14T17:54:17.773Z,79.20
2022-09-14T17:56:45.274Z,79.20
2022-09-14T17:59:16.274Z,79.20
2022-09-14T18:01:43.518Z,79.20
2022-09-14T18:04:12.311Z,78.90
2022-09-14T18:06:42.150Z,80.90
2022-09-14T18:09:13.115Z,80.20
2022-09-14T18:11:40.716Z,80.30
2022-09-14T18:14:12.721Z,80.30
2022-09-14T18:16:41.034Z,79.90
2022-09-14T18:19:08.484Z,80.50
2022-09-14T18:21:36.515Z,80.70
2022-09-14T18:24:04.233Z,80.40
2022-09-14T18:26:31.402Z,81.60
2022-09-14T18:28:58.860Z,80.40
2022-09-14T18:31:26.763Z,81.50
2022-09-14T18:33:58.380Z,81.40
2022-09-14T18:36:28.835Z,82.00
2022-09-14T18:38:57.929Z,81.80
2022-09-14T18:41:26.574Z,81.50
2022-09-14T18:43:54.712Z,81.30
2022-09-14T18:46:27.122Z,82.30
2022-09-14T18:48:57.642Z,82.00
2022-09-14T18:51:25.447Z,81.90
2022-09-14T18:54:01.196Z,81.70
2022-09-14T18:56:35.055Z,81.60
2022-09-14T18:59:04.096Z,82.00
2022-09-14T19:01:33.614Z,81.60
2022-09-14T19:04:27.699Z,82.20
2022-09-14T19:06:54.770Z,82.30
2022-09-14T19:09:22.305Z,83.30
2022-09-14T19:11:49.468Z,83.50
2022-09-14T19:14:17.576Z,82.60
2022-09-14T19:16:44.693Z,82.60
2022-09-14T19:19:26.252Z,82.70
2022-09-14T19:21:54.245Z,82.50
2022-09-14T19:24:22.557Z,82.40
2022-09-14T19:26:52.868Z,82.70
2022-09-14T19:29:22.770Z,82.80
2022-09-14T19:31:51.811Z,83.00
2022-09-14T19:34:24.550Z,83.00
2022-09-14T19:36:56.318Z,83.10
2022-09-14T19:39:31.114Z,83.30
2022-09-14T19:41:58.381Z,83.20
2022-09-14T19:44:28.061Z,82.90
2022-09-14T19:47:02.177Z,83.00
2022-09-14T19:49:30.814Z,82.90
2022-09-14T19:51:58.242Z,84.20
2022-09-14T19:54:25.439Z,83.40
2022-09-14T19:56:52.538Z,83.00
2022-09-14T19:59:20.006Z,83.00
2022-09-14T20:01:47.651Z,82.80
2022-09-14T20:04:15.847Z,83.40
2022-09-14T20:06:44.564Z,83.10
2022-09-14T20:09:18.612Z,85.30
2022-09-14T20:11:47.267Z,84.90
2022-09-14T20:14:17.112Z,88.40
2022-09-14T20:16:53.314Z,86.30
2022-09-14T20:19:23.956Z,86.70
2022-09-14T20:21:52.012Z,86.30
2022-09-14T20:24:25.895Z,89.30
2022-09-14T20:26:59.852Z,88.00
2022-09-14T20:29:32.115Z,88.80
2022-09-14T20:31:59.762Z,90.70
2022-09-14T20:34:27.354Z,90.30
2022-09-14T20:36:54.952Z,90.30
2022-09-14T20:39:23.289Z,90.00
2022-09-14T20:41:50.610Z,90.00
2022-09-14T20:44:22.361Z,91.30
2022-09-14T20:46:53.534Z,91.80
2022-09-14T20:49:22.506Z,95.10
2022-09-14T20:51:52.601Z,93.00
2022-09-14T20:54:20.026Z,92.80
2022-09-14T20:56:47.217Z,92.40
2022-09-14T20:59:18.356Z,92.70
2022-09-14T21:01:49.822Z,94.10
2022-09-14T21:04:21.622Z,94.80
2022-09-14T21:06:52.783Z,94.20
2022-09-14T21:09:22.096Z,94.20
2022-09-14T21:11:49.424Z,94.30
2022-09-14T21:14:18.739Z,94.30
2022-09-14T21:16:48.105Z,94.20
2022-09-14T21:19:27.280Z,94.00
2022-09-14T21:21:55.944Z,94.70
2022-09-14T21:24:23.571Z,94.20
2022-09-14T21:26:50.865Z,94.30
2022-09-14T21:29:22.606Z,94.20
2022-09-14T21:31:50.376Z,94.00
2022-09-14T21:34:17.943Z,94.80
2022-09-14T21:36:48.173Z,94.40
2022-09-14T21:39:19.371Z,94.10
2022-09-14T21:41:46.546Z,94.20
2022-09-14T21:44:13.920Z,94.30
2022-09-14T21:46:41.536Z,94.20
2022-09-14T21:49:14.212Z,94.50
2022-09-14T21:51:44.379Z,94.40
2022-09-14T21:54:12.982Z,94.70
2022-09-14T21:56:42.760Z,94.90
2022-09-14T21:59:23.282Z,94.80
2022-09-14T22:01:51.317Z,94.80
2022-09-14T22:04:20.994Z,95.00
2022-09-14T22:06:51.381Z,94.40
2022-09-14T22:09:20.923Z,94.80
2022-09-14T22:11:49.040Z,94.80
2022-09-14T22:14:19.617Z,95.30
2022-09-14T22:16:47.732Z,94.90
2022-09-14T22:19:25.954Z,95.00
2022-09-14T22:21:53.507Z,95.30
2022-09-14T22:24:37.400Z,95.30
2022-09-14T22:27:10.082Z,96.80
2022-09-14T22:29:40.765Z,95.90
2022-09-14T22:32:11.207Z,95.70
2022-09-14T22:34:49.618Z,95.50
2022-09-14T22:37:16.900Z,95.60
2022-09-14T22:39:44.009Z,95.50
2022-09-14T22:42:18.786Z,95.50
2022-09-14T22:44:45.924Z,95.40
2022-09-14T22:47:14.042Z,95.40
2022-09-14T22:49:41.090Z,95.50
2022-09-14T22:52:08.348Z,95.40
2022-09-14T22:54:35.446Z,95.20
2022-09-14T22:57:02.590Z,95.40
2022-09-14T22:59:30.007Z,95.40
2022-09-14T23:01:57.355Z,95.70
2022-09-14T23:04:24.624Z,95.90
2022-09-14T23:06:52.983Z,95.90
2022-09-14T23:09:22.170Z,95.60
2022-09-14T23:11:49.457Z,95.60
2022-09-14T23:14:17.136Z,95.70
2022-09-14T23:16:47.104Z,95.80
2022-09-14T23:19:17.192Z,95.90
2022-09-14T23:21:44.898Z,96.10
2022-09-14T23:24:12.331Z,96.10
2022-09-14T23:26:39.830Z,95.90
2022-09-14T23:29:13.654Z,96.10
2022-09-14T23:31:40.920Z,95.90
2022-09-14T23:34:09.285Z,97.00
2022-09-14T23:36:36.510Z,96.80
2022-09-14T23:39:03.992Z,97.00
2022-09-14T23:41:31.875Z,97.00
2022-09-14T23:43:59.123Z,97.20
2022-09-14T23:46:28.967Z,98.70
2022-09-14T23:48:56.408Z,97.60
2022-09-14T23:51:23.522Z,97.70
2022-09-14T23:53:52.531Z,97.60
2022-09-14T23:56:19.949Z,97.40
2022-09-14T23:58:49.174Z,97.30
